sensor_id;sensor_type;location;lat;lon;timestamp;temperature;humidity
30308;DHT22;17114;52.314;8.910;2024-03-29T00:01:36;8.60;99.90
30308;DHT22;17114;52.314;8.910;2024-03-29T00:04:02;8.60;99.90
30308;DHT22;17114;52.314;8.910;2024-03-29T00:06:28;8.50;99.90
30308;DHT22;17114;52.314;8.910;2024-03-29T00:08:54;8.50;99.90
30308;DHT22;17114;52.314;8.910;2024-03-29T00:11:20;8.50;99.90
30308;DHT22;17114;52.314;8.910;2024-03-29T00:13:46;8.50;99.90
30308;DHT22;17114;52.314;8.910;2024-03-29T00:16:12;8.50;99.90
30308;DHT22;17114;52.314;8.910;2024-03-29T00:18:38;8.50;99.90
30308;DHT22;17114;52.314;8.910;2024-03-29T00:21:04;8.60;99.90
30308;DHT22;17114;52.314;8.910;2024-03-29T00:23:31;8.50;99.90
30308;DHT22;17114;52.314;8.910;2024-03-29T00:25:57;8.60;99.90
30308;DHT22;17114;52.314;8.910;2024-03-29T00:28:24;8.60;99.90
30308;DHT22;17114;52.314;8.910;2024-03-29T00:30:50;8.50;99.90
30308;DHT22;17114;52.314;8.910;2024-03-29T00:33:16;8.50;99.90
30308;DHT22;17114;52.314;8.910;2024-03-29T00:35:44;8.50;99.90
30308;DHT22;17114;52.314;8.910;2024-03-29T00:38:11;8.50;99.90
30308;DHT22;17114;52.314;8.910;2024-03-29T00:40:37;8.50;99.90
30308;DHT22;17114;52.314;8.910;2024-03-29T00:43:04;8.50;99.90
30308;DHT22;17114;52.314;8.910;2024-03-29T00:45:30;8.50;99.90
30308;DHT22;17114;52.314;8.910;2024-03-29T00:47:57;8.40;99.90
30308;DHT22;17114;52.314;8.910;2024-03-29T00:50:23;8.40;99.90
30308;DHT22;17114;52.314;8.910;2024-03-29T00:52:49;8.50;99.90
30308;DHT22;17114;52.314;8.910;2024-03-29T00:55:16;8.40;99.90
30308;DHT22;17114;52.314;8.910;2024-03-29T00:57:42;8.40;99.90
30308;DHT22;17114;52.314;8.910;2024-03-29T01:00:09;8.40;99.90
30308;DHT22;17114;52.314;8.910;2024-03-29T01:02:36;8.20;99.90
30308;DHT22;17114;52.314;8.910;2024-03-29T01:05:03;8.20;99.90
30308;DHT22;17114;52.314;8.910;2024-03-29T01:07:29;8.30;99.90
30308;DHT22;17114;52.314;8.910;2024-03-29T01:09:55;8.30;99.90
30308;DHT22;17114;52.314;8.910;2024-03-29T01:12:21;8.20;99.90
30308;DHT22;17114;52.314;8.910;2024-03-29T01:14:47;8.20;99.90
30308;DHT22;17114;52.314;8.910;2024-03-29T01:17:14;8.30;99.90
30308;DHT22;17114;52.314;8.910;2024-03-29T01:19:40;8.40;99.90
30308;DHT22;17114;52.314;8.910;2024-03-29T01:22:06;8.50;99.90
30308;DHT22;17114;52.314;8.910;2024-03-29T01:24:34;8.60;99.90
30308;DHT22;17114;52.314;8.910;2024-03-29T01:27:00;8.50;99.90
30308;DHT22;17114;52.314;8.910;2024-03-29T01:29:27;8.40;99.90
30308;DHT22;17114;52.314;8.910;2024-03-29T01:31:54;8.50;99.90
30308;DHT22;17114;52.314;8.910;2024-03-29T01:34:20;8.50;99.90
30308;DHT22;17114;52.314;8.910;2024-03-29T01:36:46;8.50;99.90
30308;DHT22;17114;52.314;8.910;2024-03-29T01:39:12;8.60;99.90
30308;DHT22;17114;52.314;8.910;2024-03-29T01:41:41;8.60;99.90
30308;DHT22;17114;52.314;8.910;2024-03-29T01:44:07;8.70;99.90
30308;DHT22;17114;52.314;8.910;2024-03-29T01:46:35;8.80;99.90
30308;DHT22;17114;52.314;8.910;2024-03-29T01:49:04;8.70;99.90
30308;DHT22;17114;52.314;8.910;2024-03-29T01:51:31;8.80;99.90
30308;DHT22;17114;52.314;8.910;2024-03-29T01:53:58;8.80;99.90
30308;DHT22;17114;52.314;8.910;2024-03-29T01:56:25;8.80;99.90
30308;DHT22;17114;52.314;8.910;2024-03-29T01:58:53;8.80;99.90
30308;DHT22;17114;52.314;8.910;2024-03-29T02:01:21;8.80;99.90
30308;DHT22;17114;52.314;8.910;2024-03-29T02:03:47;8.80;99.90
30308;DHT22;17114;52.314;8.910;2024-03-29T02:06:14;8.80;99.90
30308;DHT22;17114;52.314;8.910;2024-03-29T02:08:41;8.90;99.90
30308;DHT22;17114;52.314;8.910;2024-03-29T02:11:08;9.00;99.90
30308;DHT22;17114;52.314;8.910;2024-03-29T02:13:34;9.00;99.90
30308;DHT22;17114;52.314;8.910;2024-03-29T02:16:01;9.00;99.90
30308;DHT22;17114;52.314;8.910;2024-03-29T02:18:28;9.00;99.90
30308;DHT22;17114;52.314;8.910;2024-03-29T02:20:54;9.00;99.90
30308;DHT22;17114;52.314;8.910;2024-03-29T02:23:26;8.90;99.90
30308;DHT22;17114;52.314;8.910;2024-03-29T02:25:54;8.90;99.90
30308;DHT22;17114;52.314;8.910;2024-03-29T02:28:22;8.90;99.90
30308;DHT22;17114;52.314;8.910;2024-03-29T02:30:49;8.90;99.90
30308;DHT22;17114;52.314;8.910;2024-03-29T02:33:16;8.90;99.90
30308;DHT22;17114;52.314;8.910;2024-03-29T02:35:43;8.80;99.90
30308;DHT22;17114;52.314;8.910;2024-03-29T02:38:09;8.80;99.90
30308;DHT22;17114;52.314;8.910;2024-03-29T02:40:35;8.80;99.90
30308;DHT22;17114;52.314;8.910;2024-03-29T02:43:01;8.70;99.90
30308;DHT22;17114;52.314;8.910;2024-03-29T02:45:27;8.70;99.90
30308;DHT22;17114;52.314;8.910;2024-03-29T02:47:53;8.60;99.90
30308;DHT22;17114;52.314;8.910;2024-03-29T02:50:20;8.50;99.90
30308;DHT22;17114;52.314;8.910;2024-03-29T02:52:46;8.50;99.90
30308;DHT22;17114;52.314;8.910;2024-03-29T02:55:12;8.40;99.90
30308;DHT22;17114;52.314;8.910;2024-03-29T02:57:38;8.40;99.90
30308;DHT22;17114;52.314;8.910;2024-03-29T03:00:05;8.20;99.90
30308;DHT22;17114;52.314;8.910;2024-03-29T03:02:32;8.10;99.90
30308;DHT22;17114;52.314;8.910;2024-03-29T03:04:59;8.00;99.90
30308;DHT22;17114;52.314;8.910;2024-03-29T03:07:28;8.00;99.90
30308;DHT22;17114;52.314;8.910;2024-03-29T03:10:13;7.90;99.90
30308;DHT22;17114;52.314;8.910;2024-03-29T03:12:57;7.80;99.90
30308;DHT22;17114;52.314;8.910;2024-03-29T03:15:24;7.80;99.90
30308;DHT22;17114;52.314;8.910;2024-03-29T03:17:50;7.80;99.90
30308;DHT22;17114;52.314;8.910;2024-03-29T03:20:16;7.80;99.90
30308;DHT22;17114;52.314;8.910;2024-03-29T03:22:42;7.70;99.90
30308;DHT22;17114;52.314;8.910;2024-03-29T03:25:09;7.70;99.90
30308;DHT22;17114;52.314;8.910;2024-03-29T03:27:35;7.70;99.90
30308;DHT22;17114;52.314;8.910;2024-03-29T03:30:01;7.60;99.90
30308;DHT22;17114;52.314;8.910;2024-03-29T03:32:26;7.70;99.90
30308;DHT22;17114;52.314;8.910;2024-03-29T03:34:52;7.60;99.90
30308;DHT22;17114;52.314;8.910;2024-03-29T03:37:18;7.60;99.90
30308;DHT22;17114;52.314;8.910;2024-03-29T03:39:44;7.60;99.90
30308;DHT22;17114;52.314;8.910;2024-03-29T03:42:10;7.60;99.90
30308;DHT22;17114;52.314;8.910;2024-03-29T03:44:36;7.60;99.90
30308;DHT22;17114;52.314;8.910;2024-03-29T03:47:03;7.60;99.90
30308;DHT22;17114;52.314;8.910;2024-03-29T03:49:29;7.60;99.90
30308;DHT22;17114;52.314;8.910;2024-03-29T03:51:55;7.60;99.90
30308;DHT22;17114;52.314;8.910;2024-03-29T03:54:24;7.50;99.90
30308;DHT22;17114;52.314;8.910;2024-03-29T03:56:51;7.60;99.90
30308;DHT22;17114;52.314;8.910;2024-03-29T03:59:17;7.60;99.90
30308;DHT22;17114;52.314;8.910;2024-03-29T04:01:43;7.60;99.90
30308;DHT22;17114;52.314;8.910;2024-03-29T04:04:09;7.60;99.90
30308;DHT22;17114;52.314;8.910;2024-03-29T04:06:35;7.80;99.90
30308;DHT22;17114;52.314;8.910;2024-03-29T04:09:01;7.70;99.90
30308;DHT22;17114;52.314;8.910;2024-03-29T04:11:27;7.60;99.90
30308;DHT22;17114;52.314;8.910;2024-03-29T04:13:54;7.80;99.90
30308;DHT22;17114;52.314;8.910;2024-03-29T04:16:20;7.80;99.90
30308;DHT22;17114;52.314;8.910;2024-03-29T04:18:46;7.80;99.90
30308;DHT22;17114;52.314;8.910;2024-03-29T04:21:13;7.90;99.90
30308;DHT22;17114;52.314;8.910;2024-03-29T04:23:39;7.90;99.90
30308;DHT22;17114;52.314;8.910;2024-03-29T04:26:05;8.00;99.90
30308;DHT22;17114;52.314;8.910;2024-03-29T04:28:31;8.10;99.90
30308;DHT22;17114;52.314;8.910;2024-03-29T04:31:00;8.10;99.90
30308;DHT22;17114;52.314;8.910;2024-03-29T04:33:27;8.10;99.90
30308;DHT22;17114;52.314;8.910;2024-03-29T04:35:58;8.10;99.90
30308;DHT22;17114;52.314;8.910;2024-03-29T04:38:24;8.10;99.90
30308;DHT22;17114;52.314;8.910;2024-03-29T04:40:52;8.10;99.90
30308;DHT22;17114;52.314;8.910;2024-03-29T04:43:18;8.10;99.90
30308;DHT22;17114;52.314;8.910;2024-03-29T04:45:45;8.20;99.90
30308;DHT22;17114;52.314;8.910;2024-03-29T04:48:11;8.20;99.90
30308;DHT22;17114;52.314;8.910;2024-03-29T04:50:37;8.40;99.90
30308;DHT22;17114;52.314;8.910;2024-03-29T04:53:04;8.40;99.90
30308;DHT22;17114;52.314;8.910;2024-03-29T04:55:30;8.50;99.90
30308;DHT22;17114;52.314;8.910;2024-03-29T04:57:56;8.70;99.90
30308;DHT22;17114;52.314;8.910;2024-03-29T05:00:22;9.00;99.90
30308;DHT22;17114;52.314;8.910;2024-03-29T05:02:48;9.40;99.90
30308;DHT22;17114;52.314;8.910;2024-03-29T05:05:14;9.50;99.90
30308;DHT22;17114;52.314;8.910;2024-03-29T05:07:40;9.60;99.90
30308;DHT22;17114;52.314;8.910;2024-03-29T05:10:07;9.60;99.90
30308;DHT22;17114;52.314;8.910;2024-03-29T05:12:33;9.60;99.90
30308;DHT22;17114;52.314;8.910;2024-03-29T05:14:59;9.50;99.90
30308;DHT22;17114;52.314;8.910;2024-03-29T05:17:25;9.50;99.90
30308;DHT22;17114;52.314;8.910;2024-03-29T05:19:53;9.40;99.90
30308;DHT22;17114;52.314;8.910;2024-03-29T05:22:20;9.30;99.90
30308;DHT22;17114;52.314;8.910;2024-03-29T05:24:46;9.20;99.90
30308;DHT22;17114;52.314;8.910;2024-03-29T05:27:12;9.10;99.90
30308;DHT22;17114;52.314;8.910;2024-03-29T05:29:39;9.00;99.90
30308;DHT22;17114;52.314;8.910;2024-03-29T05:32:06;8.90;99.90
30308;DHT22;17114;52.314;8.910;2024-03-29T05:34:33;8.90;99.90
30308;DHT22;17114;52.314;8.910;2024-03-29T05:36:59;8.80;99.90
30308;DHT22;17114;52.314;8.910;2024-03-29T05:39:24;8.90;99.90
30308;DHT22;17114;52.314;8.910;2024-03-29T05:41:50;8.70;99.90
30308;DHT22;17114;52.314;8.910;2024-03-29T05:44:16;8.70;99.90
30308;DHT22;17114;52.314;8.910;2024-03-29T05:46:43;8.50;99.90
30308;DHT22;17114;52.314;8.910;2024-03-29T05:49:09;8.50;99.90
30308;DHT22;17114;52.314;8.910;2024-03-29T05:51:35;8.40;99.90
30308;DHT22;17114;52.314;8.910;2024-03-29T05:54:02;8.40;99.90
30308;DHT22;17114;52.314;8.910;2024-03-29T05:56:31;8.30;99.90
30308;DHT22;17114;52.314;8.910;2024-03-29T05:58:57;8.20;99.90
30308;DHT22;17114;52.314;8.910;2024-03-29T06:01:23;8.20;99.90
30308;DHT22;17114;52.314;8.910;2024-03-29T06:03:52;8.20;99.90
30308;DHT22;17114;52.314;8.910;2024-03-29T06:06:20;8.20;99.90
30308;DHT22;17114;52.314;8.910;2024-03-29T06:08:50;7.90;99.90
30308;DHT22;17114;52.314;8.910;2024-03-29T06:11:16;7.90;99.90
30308;DHT22;17114;52.314;8.910;2024-03-29T06:13:42;8.10;99.90
30308;DHT22;17114;52.314;8.910;2024-03-29T06:16:28;8.10;99.90
30308;DHT22;17114;52.314;8.910;2024-03-29T06:19:13;8.00;99.90
30308;DHT22;17114;52.314;8.910;2024-03-29T06:21:39;8.00;99.90
30308;DHT22;17114;52.314;8.910;2024-03-29T06:24:08;8.00;99.90
30308;DHT22;17114;52.314;8.910;2024-03-29T06:26:39;8.00;99.90
30308;DHT22;17114;52.314;8.910;2024-03-29T06:29:05;8.00;99.90
30308;DHT22;17114;52.314;8.910;2024-03-29T06:31:31;8.00;99.90
30308;DHT22;17114;52.314;8.910;2024-03-29T06:33:58;7.90;99.90
30308;DHT22;17114;52.314;8.910;2024-03-29T06:36:25;7.90;99.90
30308;DHT22;17114;52.314;8.910;2024-03-29T06:38:52;7.90;99.90
30308;DHT22;17114;52.314;8.910;2024-03-29T06:41:18;7.80;99.90
30308;DHT22;17114;52.314;8.910;2024-03-29T06:43:45;7.90;99.90
30308;DHT22;17114;52.314;8.910;2024-03-29T06:46:12;7.80;99.90
30308;DHT22;17114;52.314;8.910;2024-03-29T06:48:38;7.80;99.90
30308;DHT22;17114;52.314;8.910;2024-03-29T06:51:05;7.80;99.90
30308;DHT22;17114;52.314;8.910;2024-03-29T06:53:31;7.80;99.90
30308;DHT22;17114;52.314;8.910;2024-03-29T06:55:57;7.70;99.90
30308;DHT22;17114;52.314;8.910;2024-03-29T06:58:23;7.70;99.90
30308;DHT22;17114;52.314;8.910;2024-03-29T07:00:49;7.70;99.90
30308;DHT22;17114;52.314;8.910;2024-03-29T07:03:16;7.60;99.90
30308;DHT22;17114;52.314;8.910;2024-03-29T07:05:46;7.60;99.90
30308;DHT22;17114;52.314;8.910;2024-03-29T07:08:13;7.60;99.90
30308;DHT22;17114;52.314;8.910;2024-03-29T07:10:39;7.60;99.90
30308;DHT22;17114;52.314;8.910;2024-03-29T07:13:08;7.60;99.90
30308;DHT22;17114;52.314;8.910;2024-03-29T07:15:35;7.60;99.90
30308;DHT22;17114;52.314;8.910;2024-03-29T07:18:02;7.60;99.90
30308;DHT22;17114;52.314;8.910;2024-03-29T07:20:30;7.60;99.90
30308;DHT22;17114;52.314;8.910;2024-03-29T07:22:57;7.60;99.90
30308;DHT22;17114;52.314;8.910;2024-03-29T07:25:23;7.60;99.90
30308;DHT22;17114;52.314;8.910;2024-03-29T07:27:49;7.60;99.90
30308;DHT22;17114;52.314;8.910;2024-03-29T07:30:16;7.70;99.90
30308;DHT22;17114;52.314;8.910;2024-03-29T07:32:42;7.70;99.90
30308;DHT22;17114;52.314;8.910;2024-03-29T07:35:08;7.70;99.90
30308;DHT22;17114;52.314;8.910;2024-03-29T07:37:35;7.80;99.90
30308;DHT22;17114;52.314;8.910;2024-03-29T07:40:01;7.80;99.90
30308;DHT22;17114;52.314;8.910;2024-03-29T07:42:27;7.80;99.90
30308;DHT22;17114;52.314;8.910;2024-03-29T07:44:53;7.80;99.90
30308;DHT22;17114;52.314;8.910;2024-03-29T07:47:19;8.00;99.90
30308;DHT22;17114;52.314;8.910;2024-03-29T07:49:45;7.90;99.90
30308;DHT22;17114;52.314;8.910;2024-03-29T07:52:11;8.00;99.90
30308;DHT22;17114;52.314;8.910;2024-03-29T07:54:38;8.10;99.90
30308;DHT22;17114;52.314;8.910;2024-03-29T07:57:04;8.10;99.90
30308;DHT22;17114;52.314;8.910;2024-03-29T07:59:31;8.10;99.90
30308;DHT22;17114;52.314;8.910;2024-03-29T08:01:57;8.10;99.90
30308;DHT22;17114;52.314;8.910;2024-03-29T08:04:23;8.10;99.90
30308;DHT22;17114;52.314;8.910;2024-03-29T08:06:52;8.20;99.90
30308;DHT22;17114;52.314;8.910;2024-03-29T08:09:19;8.30;99.90
30308;DHT22;17114;52.314;8.910;2024-03-29T08:11:45;8.50;99.90
30308;DHT22;17114;52.314;8.910;2024-03-29T08:14:11;8.50;99.90
30308;DHT22;17114;52.314;8.910;2024-03-29T08:16:38;8.60;99.90
30308;DHT22;17114;52.314;8.910;2024-03-29T08:19:04;8.60;99.90
30308;DHT22;17114;52.314;8.910;2024-03-29T08:21:29;8.70;99.90
30308;DHT22;17114;52.314;8.910;2024-03-29T08:23:55;8.70;99.90
30308;DHT22;17114;52.314;8.910;2024-03-29T08:26:22;8.80;99.90
30308;DHT22;17114;52.314;8.910;2024-03-29T08:28:48;8.90;99.90
30308;DHT22;17114;52.314;8.910;2024-03-29T08:31:15;9.00;99.90
30308;DHT22;17114;52.314;8.910;2024-03-29T08:33:41;9.10;99.90
30308;DHT22;17114;52.314;8.910;2024-03-29T08:36:09;9.20;99.90
30308;DHT22;17114;52.314;8.910;2024-03-29T08:38:39;9.30;99.90
30308;DHT22;17114;52.314;8.910;2024-03-29T08:41:09;9.30;99.90
30308;DHT22;17114;52.314;8.910;2024-03-29T08:43:35;9.40;99.90
30308;DHT22;17114;52.314;8.910;2024-03-29T08:46:01;9.50;99.90
30308;DHT22;17114;52.314;8.910;2024-03-29T08:48:27;9.50;99.90
30308;DHT22;17114;52.314;8.910;2024-03-29T08:50:54;9.50;99.90
30308;DHT22;17114;52.314;8.910;2024-03-29T08:53:23;9.50;99.90
30308;DHT22;17114;52.314;8.910;2024-03-29T08:55:51;9.60;99.90
30308;DHT22;17114;52.314;8.910;2024-03-29T08:58:17;9.70;99.90
30308;DHT22;17114;52.314;8.910;2024-03-29T09:00:53;9.60;99.90
30308;DHT22;17114;52.314;8.910;2024-03-29T09:03:20;9.60;99.90
30308;DHT22;17114;52.314;8.910;2024-03-29T09:05:45;9.70;99.90
30308;DHT22;17114;52.314;8.910;2024-03-29T09:08:11;9.70;99.90
30308;DHT22;17114;52.314;8.910;2024-03-29T09:10:37;9.80;99.90
30308;DHT22;17114;52.314;8.910;2024-03-29T09:13:04;9.80;99.90
30308;DHT22;17114;52.314;8.910;2024-03-29T09:15:33;9.90;99.90
30308;DHT22;17114;52.314;8.910;2024-03-29T09:17:59;9.90;99.90
30308;DHT22;17114;52.314;8.910;2024-03-29T09:20:38;10.00;99.90
30308;DHT22;17114;52.314;8.910;2024-03-29T09:23:04;10.00;99.90
30308;DHT22;17114;52.314;8.910;2024-03-29T09:25:30;10.00;99.90
30308;DHT22;17114;52.314;8.910;2024-03-29T09:27:58;10.00;99.90
30308;DHT22;17114;52.314;8.910;2024-03-29T09:30:24;10.00;99.90
30308;DHT22;17114;52.314;8.910;2024-03-29T09:32:50;10.00;99.90
30308;DHT22;17114;52.314;8.910;2024-03-29T09:35:18;10.00;99.90
30308;DHT22;17114;52.314;8.910;2024-03-29T09:37:45;10.10;99.90
30308;DHT22;17114;52.314;8.910;2024-03-29T09:40:12;10.10;99.90
30308;DHT22;17114;52.314;8.910;2024-03-29T09:42:39;10.20;99.90
30308;DHT22;17114;52.314;8.910;2024-03-29T09:45:07;10.30;99.90
30308;DHT22;17114;52.314;8.910;2024-03-29T09:47:34;10.30;99.90
30308;DHT22;17114;52.314;8.910;2024-03-29T09:50:05;10.40;99.90
30308;DHT22;17114;52.314;8.910;2024-03-29T09:52:33;10.40;99.90
30308;DHT22;17114;52.314;8.910;2024-03-29T09:55:01;10.40;99.90
30308;DHT22;17114;52.314;8.910;2024-03-29T09:57:31;10.50;99.90
30308;DHT22;17114;52.314;8.910;2024-03-29T09:59:58;10.50;99.90
30308;DHT22;17114;52.314;8.910;2024-03-29T10:02:34;10.60;99.90
30308;DHT22;17114;52.314;8.910;2024-03-29T10:05:06;10.70;99.90
30308;DHT22;17114;52.314;8.910;2024-03-29T10:07:35;10.70;99.90
30308;DHT22;17114;52.314;8.910;2024-03-29T10:10:03;10.90;99.90
30308;DHT22;17114;52.314;8.910;2024-03-29T10:12:30;10.90;99.90
30308;DHT22;17114;52.314;8.910;2024-03-29T10:14:56;10.90;99.90
30308;DHT22;17114;52.314;8.910;2024-03-29T10:17:35;10.90;99.90
30308;DHT22;17114;52.314;8.910;2024-03-29T10:20:05;10.90;99.90
30308;DHT22;17114;52.314;8.910;2024-03-29T10:22:42;11.10;99.90
30308;DHT22;17114;52.314;8.910;2024-03-29T10:25:10;11.40;99.90
30308;DHT22;17114;52.314;8.910;2024-03-29T10:27:39;11.50;99.90
30308;DHT22;17114;52.314;8.910;2024-03-29T10:30:13;11.60;99.90
30308;DHT22;17114;52.314;8.910;2024-03-29T10:32:45;11.60;99.90
30308;DHT22;17114;52.314;8.910;2024-03-29T10:35:12;11.80;99.90
30308;DHT22;17114;52.314;8.910;2024-03-29T10:37:42;11.80;99.90
30308;DHT22;17114;52.314;8.910;2024-03-29T10:40:21;11.90;99.90
30308;DHT22;17114;52.314;8.910;2024-03-29T10:42:52;12.00;99.90
30308;DHT22;17114;52.314;8.910;2024-03-29T10:45:21;11.90;99.90
30308;DHT22;17114;52.314;8.910;2024-03-29T10:47:59;12.10;99.90
30308;DHT22;17114;52.314;8.910;2024-03-29T10:50:27;12.10;99.90
30308;DHT22;17114;52.314;8.910;2024-03-29T10:52:55;12.50;99.90
30308;DHT22;17114;52.314;8.910;2024-03-29T10:55:23;12.70;99.90
30308;DHT22;17114;52.314;8.910;2024-03-29T10:57:50;12.60;99.90
30308;DHT22;17114;52.314;8.910;2024-03-29T11:00:24;12.70;99.90
30308;DHT22;17114;52.314;8.910;2024-03-29T11:03:05;12.80;99.90
30308;DHT22;17114;52.314;8.910;2024-03-29T11:06:03;12.90;99.90
30308;DHT22;17114;52.314;8.910;2024-03-29T11:08:34;12.80;99.90
30308;DHT22;17114;52.314;8.910;2024-03-29T11:11:05;12.70;99.90
30308;DHT22;17114;52.314;8.910;2024-03-29T11:14:07;12.60;99.90
30308;DHT22;17114;52.314;8.910;2024-03-29T11:16:36;12.70;99.90
30308;DHT22;17114;52.314;8.910;2024-03-29T11:19:03;12.60;99.90
30308;DHT22;17114;52.314;8.910;2024-03-29T11:21:32;12.60;99.90
30308;DHT22;17114;52.314;8.910;2024-03-29T11:24:04;12.70;99.90
30308;DHT22;17114;52.314;8.910;2024-03-29T11:26:31;12.80;99.90
30308;DHT22;17114;52.314;8.910;2024-03-29T11:29:01;12.80;99.90
30308;DHT22;17114;52.314;8.910;2024-03-29T11:31:38;12.80;99.90
30308;DHT22;17114;52.314;8.910;2024-03-29T11:34:09;12.80;99.90
30308;DHT22;17114;52.314;8.910;2024-03-29T11:36:39;12.80;99.90
30308;DHT22;17114;52.314;8.910;2024-03-29T11:39:06;12.80;99.90
30308;DHT22;17114;52.314;8.910;2024-03-29T11:41:34;12.90;99.90
30308;DHT22;17114;52.314;8.910;2024-03-29T11:44:01;12.90;99.90
30308;DHT22;17114;52.314;8.910;2024-03-29T11:46:27;12.80;99.90
30308;DHT22;17114;52.314;8.910;2024-03-29T11:48:59;12.70;99.90
30308;DHT22;17114;52.314;8.910;2024-03-29T11:51:26;12.70;99.90
30308;DHT22;17114;52.314;8.910;2024-03-29T11:53:54;12.70;99.90
30308;DHT22;17114;52.314;8.910;2024-03-29T11:56:36;12.80;99.90
30308;DHT22;17114;52.314;8.910;2024-03-29T11:59:03;12.90;99.90
30308;DHT22;17114;52.314;8.910;2024-03-29T12:01:30;13.10;99.90
30308;DHT22;17114;52.314;8.910;2024-03-29T12:04:00;13.30;99.90
30308;DHT22;17114;52.314;8.910;2024-03-29T12:06:27;13.40;99.90
30308;DHT22;17114;52.314;8.910;2024-03-29T12:08:54;13.40;99.90
30308;DHT22;17114;52.314;8.910;2024-03-29T12:11:22;13.40;99.90
30308;DHT22;17114;52.314;8.910;2024-03-29T12:13:50;13.30;99.90
30308;DHT22;17114;52.314;8.910;2024-03-29T12:16:18;13.30;99.90
30308;DHT22;17114;52.314;8.910;2024-03-29T12:18:47;13.10;99.90
30308;DHT22;17114;52.314;8.910;2024-03-29T12:21:14;13.10;99.90
30308;DHT22;17114;52.314;8.910;2024-03-29T12:23:47;13.10;99.90
30308;DHT22;17114;52.314;8.910;2024-03-29T12:26:16;13.10;99.90
30308;DHT22;17114;52.314;8.910;2024-03-29T12:28:48;13.10;99.90
30308;DHT22;17114;52.314;8.910;2024-03-29T12:31:16;13.10;99.90
30308;DHT22;17114;52.314;8.910;2024-03-29T12:33:53;13.30;99.90
30308;DHT22;17114;52.314;8.910;2024-03-29T12:36:23;13.10;99.90
30308;DHT22;17114;52.314;8.910;2024-03-29T12:38:54;13.20;99.90
30308;DHT22;17114;52.314;8.910;2024-03-29T12:41:24;13.10;99.90
30308;DHT22;17114;52.314;8.910;2024-03-29T12:43:53;13.10;99.90
30308;DHT22;17114;52.314;8.910;2024-03-29T12:46:22;13.20;99.90
30308;DHT22;17114;52.314;8.910;2024-03-29T12:49:01;13.40;99.90
30308;DHT22;17114;52.314;8.910;2024-03-29T12:51:51;13.50;99.90
30308;DHT22;17114;52.314;8.910;2024-03-29T12:54:24;13.60;99.90
30308;DHT22;17114;52.314;8.910;2024-03-29T12:56:58;13.60;99.90
30308;DHT22;17114;52.314;8.910;2024-03-29T12:59:34;13.70;99.90
30308;DHT22;17114;52.314;8.910;2024-03-29T13:02:01;13.70;99.90
30308;DHT22;17114;52.314;8.910;2024-03-29T13:04:49;13.90;99.90
30308;DHT22;17114;52.314;8.910;2024-03-29T13:07:24;14.10;99.90
30308;DHT22;17114;52.314;8.910;2024-03-29T13:09:51;14.10;99.90
30308;DHT22;17114;52.314;8.910;2024-03-29T13:12:25;14.30;99.90
30308;DHT22;17114;52.314;8.910;2024-03-29T13:15:14;14.40;99.90
30308;DHT22;17114;52.314;8.910;2024-03-29T13:17:42;14.50;99.90
30308;DHT22;17114;52.314;8.910;2024-03-29T13:20:09;14.60;99.90
30308;DHT22;17114;52.314;8.910;2024-03-29T13:22:36;14.80;99.90
30308;DHT22;17114;52.314;8.910;2024-03-29T13:25:03;15.00;99.90
30308;DHT22;17114;52.314;8.910;2024-03-29T13:27:31;15.10;99.90
30308;DHT22;17114;52.314;8.910;2024-03-29T13:29:58;15.00;99.90
30308;DHT22;17114;52.314;8.910;2024-03-29T13:32:24;14.80;99.90
30308;DHT22;17114;52.314;8.910;2024-03-29T13:34:53;14.60;99.90
30308;DHT22;17114;52.314;8.910;2024-03-29T13:37:19;14.60;99.90
30308;DHT22;17114;52.314;8.910;2024-03-29T13:39:46;14.60;99.90
30308;DHT22;17114;52.314;8.910;2024-03-29T13:42:15;14.70;99.90
30308;DHT22;17114;52.314;8.910;2024-03-29T13:45:01;14.80;99.90
30308;DHT22;17114;52.314;8.910;2024-03-29T13:47:36;14.80;99.90
30308;DHT22;17114;52.314;8.910;2024-03-29T13:50:03;14.80;99.90
30308;DHT22;17114;52.314;8.910;2024-03-29T13:52:29;14.90;99.90
30308;DHT22;17114;52.314;8.910;2024-03-29T13:54:57;15.00;99.90
30308;DHT22;17114;52.314;8.910;2024-03-29T13:57:24;15.10;99.90
30308;DHT22;17114;52.314;8.910;2024-03-29T13:59:52;15.40;99.90
30308;DHT22;17114;52.314;8.910;2024-03-29T14:02:19;15.60;99.90
30308;DHT22;17114;52.314;8.910;2024-03-29T14:04:47;15.60;99.90
30308;DHT22;17114;52.314;8.910;2024-03-29T14:07:15;15.60;99.90
30308;DHT22;17114;52.314;8.910;2024-03-29T14:09:44;15.80;99.90
30308;DHT22;17114;52.314;8.910;2024-03-29T14:12:11;15.60;99.90
30308;DHT22;17114;52.314;8.910;2024-03-29T14:14:39;15.40;99.90
30308;DHT22;17114;52.314;8.910;2024-03-29T14:17:05;15.20;99.90
30308;DHT22;17114;52.314;8.910;2024-03-29T14:19:38;15.20;99.90
30308;DHT22;17114;52.314;8.910;2024-03-29T14:22:05;15.30;99.90
30308;DHT22;17114;52.314;8.910;2024-03-29T14:24:32;15.30;99.90
30308;DHT22;17114;52.314;8.910;2024-03-29T14:27:03;15.40;99.90
30308;DHT22;17114;52.314;8.910;2024-03-29T14:29:34;15.50;99.90
30308;DHT22;17114;52.314;8.910;2024-03-29T14:32:01;15.30;99.90
30308;DHT22;17114;52.314;8.910;2024-03-29T14:34:29;15.20;99.90
30308;DHT22;17114;52.314;8.910;2024-03-29T14:37:04;15.10;99.90
30308;DHT22;17114;52.314;8.910;2024-03-29T14:39:31;15.10;99.90
30308;DHT22;17114;52.314;8.910;2024-03-29T14:41:57;15.10;99.90
30308;DHT22;17114;52.314;8.910;2024-03-29T14:44:26;14.90;99.90
30308;DHT22;17114;52.314;8.910;2024-03-29T14:46:53;14.80;99.90
30308;DHT22;17114;52.314;8.910;2024-03-29T14:49:19;14.50;99.90
30308;DHT22;17114;52.314;8.910;2024-03-29T14:51:46;14.20;99.90
30308;DHT22;17114;52.314;8.910;2024-03-29T14:54:13;14.10;99.90
30308;DHT22;17114;52.314;8.910;2024-03-29T14:56:39;13.80;99.90
30308;DHT22;17114;52.314;8.910;2024-03-29T14:59:07;13.60;99.90
30308;DHT22;17114;52.314;8.910;2024-03-29T15:01:37;13.40;99.90
30308;DHT22;17114;52.314;8.910;2024-03-29T15:04:04;13.30;99.90
30308;DHT22;17114;52.314;8.910;2024-03-29T15:06:30;13.30;99.90
30308;DHT22;17114;52.314;8.910;2024-03-29T15:08:58;13.30;99.90
30308;DHT22;17114;52.314;8.910;2024-03-29T15:11:25;13.30;99.90
30308;DHT22;17114;52.314;8.910;2024-03-29T15:13:52;13.40;99.90
30308;DHT22;17114;52.314;8.910;2024-03-29T15:16:19;13.50;99.90
30308;DHT22;17114;52.314;8.910;2024-03-29T15:18:47;13.60;99.90
30308;DHT22;17114;52.314;8.910;2024-03-29T15:21:13;13.80;99.90
30308;DHT22;17114;52.314;8.910;2024-03-29T15:23:41;14.00;99.90
30308;DHT22;17114;52.314;8.910;2024-03-29T15:26:07;14.00;99.90
30308;DHT22;17114;52.314;8.910;2024-03-29T15:28:35;14.10;99.90
30308;DHT22;17114;52.314;8.910;2024-03-29T15:31:21;14.10;99.90
30308;DHT22;17114;52.314;8.910;2024-03-29T15:33:51;14.20;99.90
30308;DHT22;17114;52.314;8.910;2024-03-29T15:36:20;14.30;99.90
30308;DHT22;17114;52.314;8.910;2024-03-29T15:38:50;14.30;99.90
30308;DHT22;17114;52.314;8.910;2024-03-29T15:41:22;14.30;99.90
30308;DHT22;17114;52.314;8.910;2024-03-29T15:43:49;14.20;99.90
30308;DHT22;17114;52.314;8.910;2024-03-29T15:46:16;14.10;99.90